Time,TemperatureF,DewpointF,PressureIn,WindDirection,WindDirectionDegrees,WindSpeedMPH,WindSpeedGustMPH,Humidity,HourlyPrecipIn,Conditions,Clouds,dailyrainin,SoftwareType,DateUTC
2013-02-11 00:01:00,48.6,31.3,28.80,NE,45,8.0,24.0,51,0.00,,,0.00,meteohub,2013-02-11 06:01:00,
2013-02-11 00:06:00,48.4,28.0,28.80,NNW,338,11.0,24.0,45,0.00,,,0.00,meteohub,2013-02-11 06:06:00,
2013-02-11 00:11:00,48.2,24.4,28.80,NNE,22,19.0,24.0,39,0.00,,,0.00,meteohub,2013-02-11 06:11:00,
2013-02-11 00:16:00,48.0,24.3,28.80,NNW,338,15.0,26.0,39,0.00,,,0.00,meteohub,2013-02-11 06:16:00,
2013-02-11 00:21:00,47.7,23.9,28.80,NNW,338,11.0,26.0,39,0.00,,,0.00,meteohub,2013-02-11 06:21:00,
2013-02-11 00:26:00,47.3,23.7,28.80,NNW,338,19.0,26.0,39,0.00,,,0.00,meteohub,2013-02-11 06:26:00,
2013-02-11 00:31:00,47.3,23.7,28.80,NNW,338,10.0,25.0,39,0.00,,,0.00,meteohub,2013-02-11 06:31:00,
2013-02-11 00:36:00,47.1,23.5,28.80,NNW,338,8.0,25.0,39,0.00,,,0.00,meteohub,2013-02-11 06:36:00,
2013-02-11 00:41:00,46.9,23.9,28.80,North,0,9.0,25.0,40,0.00,,,0.00,meteohub,2013-02-11 06:41:00,
2013-02-11 00:46:00,46.8,23.7,28.80,NNW,338,12.0,19.0,40,0.00,,,0.00,meteohub,2013-02-11 06:46:00,
2013-02-11 00:51:00,46.6,23.5,28.80,NNW,338,17.0,22.0,40,0.00,,,0.00,meteohub,2013-02-11 06:51:00,
2013-02-11 00:56:00,46.4,23.4,28.80,NNW,338,11.0,23.0,40,0.00,,,0.00,meteohub,2013-02-11 06:56:00,
2013-02-11 01:01:00,46.4,22.8,28.80,WNW,292,12.0,28.0,39,0.00,,,0.00,meteohub,2013-02-11 07:01:00,
2013-02-11 01:06:00,46.0,23.2,28.80,NNE,22,7.0,28.0,40,0.00,,,0.00,meteohub,2013-02-11 07:06:00,
2013-02-11 01:11:00,45.7,22.8,28.80,ENE,68,8.0,28.0,40,0.00,,,0.00,meteohub,2013-02-11 07:11:00,
2013-02-11 01:16:00,45.1,22.8,28.80,NNW,338,13.0,23.0,41,0.00,,,0.00,meteohub,2013-02-11 07:16:00,
2013-02-11 01:21:00,44.8,23.2,28.80,WNW,292,11.0,17.0,42,0.00,,,0.00,meteohub,2013-02-11 07:21:00,
2013-02-11 01:26:00,44.4,22.8,28.80,NNW,338,10.0,17.0,42,0.00,,,0.00,meteohub,2013-02-11 07:26:00,
2013-02-11 01:31:00,44.1,22.5,28.80,NNW,338,12.0,17.0,42,0.00,,,0.00,meteohub,2013-02-11 07:31:00,
2013-02-11 01:36:00,44.1,22.5,28.80,WNW,292,9.0,18.0,42,0.00,,,0.00,meteohub,2013-02-11 07:36:00,
2013-02-11 01:41:00,43.7,22.6,28.80,North,0,8.0,20.0,43,0.00,,,0.00,meteohub,2013-02-11 07:41:00,
2013-02-11 01:46:00,43.3,22.5,28.80,NNW,338,12.0,20.0,43,0.00,,,0.00,meteohub,2013-02-11 07:46:00,
2013-02-11 01:51:00,43.2,22.8,28.80,WNW,292,9.0,17.0,44,0.00,,,0.00,meteohub,2013-02-11 07:51:00,
2013-02-11 01:56:00,42.8,22.5,28.80,North,0,10.0,22.0,44,0.00,,,0.00,meteohub,2013-02-11 07:56:00,
2013-02-11 02:01:00,42.8,22.5,28.80,ESE,112,10.0,22.0,44,0.00,,,0.00,meteohub,2013-02-11 08:01:00,
2013-02-11 02:06:00,42.8,23.0,28.80,NNW,338,13.0,19.0,45,0.00,,,0.00,meteohub,2013-02-11 08:06:00,
2013-02-11 02:11:00,42.6,22.8,28.80,NNE,22,4.0,19.0,45,0.00,,,0.00,meteohub,2013-02-11 08:11:00,
2013-02-11 02:16:00,42.6,21.2,28.80,NNE,22,10.0,21.0,42,0.00,,,0.00,meteohub,2013-02-11 08:16:00,
2013-02-11 02:21:00,42.6,20.7,28.80,NNW,338,20.0,21.0,41,0.00,,,0.00,meteohub,2013-02-11 08:21:00,
2013-02-11 02:26:00,42.4,20.5,28.80,NNE,22,15.0,22.0,41,0.00,,,0.00,meteohub,2013-02-11 08:26:00,
2013-02-11 02:31:00,42.3,20.8,28.80,North,0,4.0,22.0,42,0.00,,,0.00,meteohub,2013-02-11 08:31:00,
2013-02-11 02:36:00,42.1,20.7,28.80,NNE,22,11.0,22.0,42,0.00,,,0.00,meteohub,2013-02-11 08:36:00,
2013-02-11 02:41:00,41.7,20.3,28.80,NW,315,13.0,22.0,42,0.00,,,0.00,meteohub,2013-02-11 08:41:00,
2013-02-11 02:46:00,41.5,20.1,28.80,NNE,22,18.0,22.0,42,0.00,,,0.00,meteohub,2013-02-11 08:46:00,
2013-02-11 02:51:00,41.5,20.1,28.80,WNW,292,11.0,21.0,42,0.00,,,0.00,meteohub,2013-02-11 08:51:00,
2013-02-11 02:56:00,41.4,19.4,28.80,NNW,338,17.0,23.0,41,0.00,,,0.00,meteohub,2013-02-11 08:56:00,
2013-02-11 03:01:00,41.2,19.4,28.80,WSW,248,6.0,23.0,41,0.00,,,0.00,meteohub,2013-02-11 09:01:00,
2013-02-11 03:06:00,41.0,19.8,28.80,North,0,9.0,23.0,42,0.00,,,0.00,meteohub,2013-02-11 09:06:00,
2013-02-11 03:11:00,40.8,19.6,28.80,NNW,338,11.0,23.0,42,0.00,,,0.00,meteohub,2013-02-11 09:11:00,
2013-02-11 03:16:00,40.5,18.7,28.80,WSW,248,10.0,19.0,41,0.00,,,0.00,meteohub,2013-02-11 09:16:00,
2013-02-11 03:21:00,40.3,19.0,28.80,NNW,338,21.0,21.0,42,0.00,,,0.00,meteohub,2013-02-11 09:21:00,
2013-02-11 03:26:00,40.3,18.5,28.80,North,0,11.0,25.0,41,0.00,,,0.00,meteohub,2013-02-11 09:26:00,
2013-02-11 03:31:00,39.9,18.7,28.80,ENE,68,8.0,25.0,42,0.00,,,0.00,meteohub,2013-02-11 09:31:00,
2013-02-11 03:36:00,39.7,19.0,28.80,North,0,6.0,25.0,43,0.00,,,0.00,meteohub,2013-02-11 09:36:00,
2013-02-11 03:41:00,39.6,19.6,28.80,NNW,338,6.0,17.0,44,0.00,,,0.00,meteohub,2013-02-11 09:41:00,
2013-02-11 03:46:00,39.4,19.9,28.80,NNE,22,4.0,21.0,45,0.00,,,0.00,meteohub,2013-02-11 09:46:00,
2013-02-11 03:51:00,39.2,18.7,28.80,ENE,68,16.0,21.0,43,0.00,,,0.00,meteohub,2013-02-11 09:51:00,
2013-02-11 03:56:00,38.8,17.2,28.83,ENE,68,15.0,29.0,41,0.00,,,0.00,meteohub,2013-02-11 09:56:00,
2013-02-11 04:01:00,38.5,16.3,28.83,NNW,338,15.0,29.0,40,0.00,,,0.00,meteohub,2013-02-11 10:01:00,
2013-02-11 04:06:00,38.3,16.7,28.83,ENE,68,9.0,30.0,41,0.00,,,0.00,meteohub,2013-02-11 10:06:00,
2013-02-11 04:11:00,37.9,16.3,28.83,NNW,338,9.0,30.0,41,0.00,,,0.00,meteohub,2013-02-11 10:11:00,
2013-02-11 04:16:00,37.8,16.7,28.83,NNE,22,22.0,30.0,42,0.00,,,0.00,meteohub,2013-02-11 10:16:00,
2013-02-11 04:21:00,37.6,17.2,28.83,ENE,68,7.0,28.0,43,0.00,,,0.00,meteohub,2013-02-11 10:21:00,
2013-02-11 04:26:00,37.4,17.6,28.83,North,0,17.0,25.0,44,0.00,,,0.00,meteohub,2013-02-11 10:26:00,
2013-02-11 04:31:00,37.2,17.4,28.83,SSE,158,11.0,25.0,44,0.00,,,0.00,meteohub,2013-02-11 10:31:00,
2013-02-11 04:36:00,36.9,16.5,28.83,NNW,338,23.0,25.0,43,0.00,,,0.00,meteohub,2013-02-11 10:36:00,
2013-02-11 04:41:00,36.7,15.8,28.86,ESE,112,11.0,25.0,42,0.00,,,0.00,meteohub,2013-02-11 10:41:00,
2013-02-11 04:46:00,36.3,14.4,28.86,NNW,338,11.0,27.0,40,0.00,,,0.00,meteohub,2013-02-11 10:46:00,
2013-02-11 04:52:00,36.1,14.7,28.86,WNW,292,9.0,27.0,41,0.00,,,0.00,meteohub,2013-02-11 10:52:00,
2013-02-11 04:57:00,36.0,14.5,28.86,West,270,5.0,27.0,41,0.00,,,0.00,meteohub,2013-02-11 10:57:00,
2013-02-11 05:02:00,35.8,14.4,28.86,WNW,292,17.0,23.0,41,0.00,,,0.00,meteohub,2013-02-11 11:02:00,
2013-02-11 05:07:00,35.6,14.4,28.86,NNW,338,6.0,20.0,41,0.00,,,0.00,meteohub,2013-02-11 11:07:00,
2013-02-11 05:12:00,35.4,14.2,28.86,ESE,112,13.0,25.0,41,0.00,,,0.00,meteohub,2013-02-11 11:12:00,
2013-02-11 05:17:00,35.2,14.5,28.86,NNW,338,13.0,27.0,42,0.00,,,0.00,meteohub,2013-02-11 11:17:00,
2013-02-11 05:22:00,35.1,14.4,28.86,North,0,20.0,30.0,42,0.00,,,0.00,meteohub,2013-02-11 11:22:00,
2013-02-11 05:27:00,34.9,14.2,28.86,WSW,248,10.0,30.0,42,0.00,,,0.00,meteohub,2013-02-11 11:27:00,
2013-02-11 05:32:00,34.9,14.7,28.86,NNW,338,12.0,30.0,43,0.00,,,0.00,meteohub,2013-02-11 11:32:00,
2013-02-11 05:37:00,34.7,14.0,28.86,NNE,22,11.0,26.0,42,0.00,,,0.00,meteohub,2013-02-11 11:37:00,
2013-02-11 05:41:00,34.7,14.0,28.86,East,90,11.0,24.0,42,0.00,,,0.00,meteohub,2013-02-11 11:41:00,
2013-02-11 05:46:00,34.7,14.0,28.86,WSW,248,14.0,28.0,42,0.00,,,0.00,meteohub,2013-02-11 11:46:00,
2013-02-11 05:52:00,34.5,13.8,28.86,NNW,338,15.0,28.0,42,0.00,,,0.00,meteohub,2013-02-11 11:52:00,
2013-02-11 05:57:00,34.5,14.4,28.86,NNW,338,13.0,28.0,43,0.00,,,0.00,meteohub,2013-02-11 11:57:00,
2013-02-11 06:02:00,34.5,14.4,28.86,NNE,22,17.0,24.0,43,0.00,,,0.00,meteohub,2013-02-11 12:02:00,
2013-02-11 06:07:00,34.3,14.7,28.86,NNW,338,19.0,24.0,44,0.00,,,0.00,meteohub,2013-02-11 12:07:00,
2013-02-11 06:11:00,34.3,14.7,28.89,WNW,292,11.0,24.0,44,0.00,,,0.00,meteohub,2013-02-11 12:11:00,
2013-02-11 06:16:00,34.3,15.3,28.89,NNW,338,15.0,26.0,45,0.00,,,0.00,meteohub,2013-02-11 12:16:00,
2013-02-11 06:22:00,34.2,15.1,28.89,ENE,68,8.0,26.0,45,0.00,,,0.00,meteohub,2013-02-11 12:22:00,
2013-02-11 06:27:00,34.2,15.1,28.89,NNW,338,6.0,26.0,45,0.00,,,0.00,meteohub,2013-02-11 12:27:00,
2013-02-11 06:31:00,34.0,14.4,28.89,NNW,338,13.0,26.0,44,0.00,,,0.00,meteohub,2013-02-11 12:31:00,
2013-02-11 06:37:00,34.0,14.4,28.89,NNW,338,7.0,26.0,44,0.00,,,0.00,meteohub,2013-02-11 12:37:00,
2013-02-11 06:42:00,34.0,14.4,28.89,WNW,292,11.0,26.0,44,0.00,,,0.00,meteohub,2013-02-11 12:42:00,
2013-02-11 06:47:00,34.0,14.4,28.89,NNW,338,13.0,25.0,44,0.00,,,0.00,meteohub,2013-02-11 12:47:00,
2013-02-11 06:52:00,34.0,14.4,28.89,NNW,338,13.0,24.0,44,0.00,,,0.00,meteohub,2013-02-11 12:52:00,
2013-02-11 06:57:00,33.8,14.7,28.86,NNW,338,17.0,24.0,45,0.00,,,0.00,meteohub,2013-02-11 12:57:00,
2013-02-11 07:02:00,33.8,15.3,28.86,NNW,338,15.0,25.0,46,0.00,,,0.00,meteohub,2013-02-11 13:02:00,
2013-02-11 07:07:00,33.8,15.3,28.86,NNW,338,13.0,27.0,46,0.00,,,0.00,meteohub,2013-02-11 13:07:00,
2013-02-11 07:12:00,33.8,15.3,28.89,NNW,338,10.0,27.0,46,0.00,,,0.00,meteohub,2013-02-11 13:12:00,
2013-02-11 07:17:00,33.8,14.7,28.89,North,0,8.0,31.0,45,0.00,,,0.00,meteohub,2013-02-11 13:17:00,
2013-02-11 07:22:00,33.6,13.6,28.89,NNE,22,15.0,31.0,43,0.00,,,0.00,meteohub,2013-02-11 13:22:00,
2013-02-11 07:27:00,33.6,13.1,28.89,WNW,292,13.0,31.0,42,0.00,,,0.00,meteohub,2013-02-11 13:27:00,
2013-02-11 07:32:00,33.6,13.1,28.89,WNW,292,8.0,27.0,42,0.00,,,0.00,meteohub,2013-02-11 13:32:00,
2013-02-11 07:37:00,33.6,13.1,28.89,NNE,22,24.0,26.0,42,0.00,,,0.00,meteohub,2013-02-11 13:37:00,
2013-02-11 07:41:00,33.6,12.6,28.89,North,0,23.0,26.0,41,0.00,,,0.00,meteohub,2013-02-11 13:41:00,
2013-02-11 07:47:00,33.6,12.6,28.89,WSW,248,10.0,24.0,41,0.00,,,0.00,meteohub,2013-02-11 13:47:00,
2013-02-11 07:52:00,33.6,12.6,28.89,NNE,22,13.0,24.0,41,0.00,,,0.00,meteohub,2013-02-11 13:52:00,
2013-02-11 07:57:00,33.6,12.6,28.89,NNE,22,8.0,23.0,41,0.00,,,0.00,meteohub,2013-02-11 13:57:00,
2013-02-11 08:02:00,33.6,12.6,28.89,NNE,22,22.0,23.0,41,0.00,,,0.00,meteohub,2013-02-11 14:02:00,
2013-02-11 08:07:00,33.6,12.6,28.89,ENE,68,21.0,25.0,41,0.00,,,0.00,meteohub,2013-02-11 14:07:00,
2013-02-11 08:12:00,33.6,12.6,28.89,East,90,15.0,25.0,41,0.00,,,0.00,meteohub,2013-02-11 14:12:00,
2013-02-11 08:17:00,33.6,12.6,28.89,NNE,22,22.0,25.0,41,0.00,,,0.00,meteohub,2013-02-11 14:17:00,
2013-02-11 08:22:00,33.6,13.1,28.89,NNW,338,8.0,25.0,42,0.00,,,0.00,meteohub,2013-02-11 14:22:00,
2013-02-11 08:27:00,33.6,13.1,28.89,ENE,68,10.0,23.0,42,0.00,,,0.00,meteohub,2013-02-11 14:27:00,
2013-02-11 08:32:00,33.6,13.1,28.89,NNW,338,11.0,25.0,42,0.00,,,0.00,meteohub,2013-02-11 14:32:00,
2013-02-11 08:37:00,33.6,13.1,28.89,NNE,22,13.0,25.0,42,0.00,,,0.00,meteohub,2013-02-11 14:37:00,
2013-02-11 08:42:00,33.6,13.1,28.89,West,270,6.0,25.0,42,0.00,,,0.00,meteohub,2013-02-11 14:42:00,
2013-02-11 08:47:00,33.6,12.6,28.89,NNW,338,12.0,24.0,41,0.00,,,0.00,meteohub,2013-02-11 14:47:00,
2013-02-11 08:52:00,33.6,13.1,28.89,NNW,338,9.0,24.0,42,0.00,,,0.00,meteohub,2013-02-11 14:52:00,
2013-02-11 08:57:00,33.6,13.1,28.89,ESE,112,13.0,24.0,42,0.00,,,0.00,meteohub,2013-02-11 14:57:00,
2013-02-11 09:02:00,33.6,13.1,28.89,North,0,10.0,24.0,42,0.00,,,0.00,meteohub,2013-02-11 15:02:00,
2013-02-11 09:07:00,33.6,13.1,28.89,North,0,10.0,20.0,42,0.00,,,0.00,meteohub,2013-02-11 15:07:00,
2013-02-11 09:12:00,33.6,13.1,28.89,NNW,338,10.0,23.0,42,0.00,,,0.00,meteohub,2013-02-11 15:12:00,
2013-02-11 09:17:00,33.6,13.1,28.89,NE,45,10.0,23.0,42,0.00,,,0.00,meteohub,2013-02-11 15:17:00,
2013-02-11 09:22:00,33.8,13.3,28.89,NNE,22,20.0,23.0,42,0.00,,,0.00,meteohub,2013-02-11 15:22:00,
2013-02-11 09:27:00,33.8,12.7,28.89,NNW,338,13.0,24.0,41,0.00,,,0.00,meteohub,2013-02-11 15:27:00,
2013-02-11 09:32:00,33.8,12.7,28.89,NNE,22,10.0,24.0,41,0.00,,,0.00,meteohub,2013-02-11 15:32:00,
2013-02-11 09:37:00,33.8,13.3,28.89,NNE,22,20.0,24.0,42,0.00,,,0.00,meteohub,2013-02-11 15:37:00,
2013-02-11 09:42:00,34.0,13.3,28.89,NNW,338,23.0,24.0,42,0.00,,,0.00,meteohub,2013-02-11 15:42:00,
2013-02-11 09:47:00,33.8,13.3,28.89,North,0,13.0,24.0,42,0.00,,,0.00,meteohub,2013-02-11 15:47:00,
2013-02-11 09:52:00,34.0,13.3,28.89,NNE,22,5.0,24.0,42,0.00,,,0.00,meteohub,2013-02-11 15:52:00,
2013-02-11 09:57:00,34.0,13.3,28.89,NNW,338,6.0,24.0,42,0.00,,,0.00,meteohub,2013-02-11 15:57:00,
2013-02-11 10:02:00,34.0,13.3,28.89,NNW,338,9.0,26.0,42,0.00,,,0.00,meteohub,2013-02-11 16:02:00,
2013-02-11 10:07:00,34.0,13.3,28.89,ENE,68,5.0,26.0,42,0.00,,,0.00,meteohub,2013-02-11 16:07:00,
2013-02-11 10:12:00,34.0,13.3,28.89,NNE,22,15.0,26.0,42,0.00,,,0.00,meteohub,2013-02-11 16:12:00,
2013-02-11 10:17:00,34.0,13.3,28.89,NNW,338,11.0,27.0,42,0.00,,,0.00,meteohub,2013-02-11 16:17:00,
2013-02-11 10:22:00,33.8,12.7,28.89,North,0,13.0,27.0,41,0.00,,,0.00,meteohub,2013-02-11 16:22:00,
2013-02-11 10:27:00,34.0,12.7,28.92,NNE,22,13.0,27.0,41,0.00,,,0.00,meteohub,2013-02-11 16:27:00,
2013-02-11 10:32:00,34.0,12.7,28.92,North,0,14.0,26.0,41,0.00,,,0.00,meteohub,2013-02-11 16:32:00,
2013-02-11 10:37:00,34.0,12.7,28.92,SSW,202,21.0,26.0,41,0.00,,,0.00,meteohub,2013-02-11 16:37:00,
2013-02-11 10:42:00,33.8,12.7,28.92,NNW,338,15.0,23.0,41,0.00,,,0.00,meteohub,2013-02-11 16:42:00,
2013-02-11 10:47:00,33.8,12.7,28.92,SSW,202,14.0,23.0,41,0.00,,,0.00,meteohub,2013-02-11 16:47:00,
2013-02-11 10:52:00,33.8,12.7,28.92,NNE,22,7.0,23.0,41,0.00,,,0.00,meteohub,2013-02-11 16:52:00,
2013-02-11 10:57:00,33.8,12.7,28.92,NNE,22,10.0,23.0,41,0.00,,,0.00,meteohub,2013-02-11 16:57:00,
2013-02-11 11:02:00,33.8,12.7,28.92,North,0,15.0,22.0,41,0.00,,,0.00,meteohub,2013-02-11 17:02:00,
2013-02-11 11:07:00,33.8,12.7,28.92,NNE,22,5.0,22.0,41,0.00,,,0.00,meteohub,2013-02-11 17:07:00,
2013-02-11 11:12:00,33.8,12.7,28.92,NNE,22,15.0,24.0,41,0.00,,,0.00,meteohub,2013-02-11 17:12:00,
2013-02-11 11:17:00,33.8,12.7,28.92,NNE,22,17.0,24.0,41,0.00,,,0.00,meteohub,2013-02-11 17:17:00,
2013-02-11 11:22:00,33.6,12.6,28.92,ENE,68,13.0,25.0,41,0.00,,,0.00,meteohub,2013-02-11 17:22:00,
2013-02-11 11:27:00,33.8,12.7,28.92,NNW,338,9.0,25.0,41,0.00,,,0.00,meteohub,2013-02-11 17:27:00,
2013-02-11 11:32:00,33.8,12.7,28.92,NNE,22,10.0,27.0,41,0.00,,,0.00,meteohub,2013-02-11 17:32:00,
2013-02-11 11:37:00,33.8,12.7,28.92,NNW,338,6.0,27.0,41,0.00,,,0.00,meteohub,2013-02-11 17:37:00,
2013-02-11 11:42:00,34.0,12.7,28.92,ESE,112,8.0,27.0,41,0.00,,,0.00,meteohub,2013-02-11 17:42:00,
2013-02-11 11:47:00,34.0,12.7,28.92,NNE,22,13.0,18.0,41,0.00,,,0.00,meteohub,2013-02-11 17:47:00,
2013-02-11 11:52:00,34.0,12.7,28.92,NNE,22,6.0,17.0,41,0.00,,,0.00,meteohub,2013-02-11 17:52:00,
2013-02-11 11:57:00,34.2,12.9,28.95,North,0,10.0,17.0,41,0.00,,,0.00,meteohub,2013-02-11 17:57:00,
2013-02-11 12:02:00,34.2,12.9,28.95,North,0,6.0,16.0,41,0.00,,,0.00,meteohub,2013-02-11 18:02:00,
2013-02-11 12:07:00,34.0,12.2,28.95,NNE,22,6.0,16.0,40,0.00,,,0.00,meteohub,2013-02-11 18:07:00,
2013-02-11 12:12:00,34.0,12.7,28.95,NNE,22,9.0,25.0,41,0.00,,,0.00,meteohub,2013-02-11 18:12:00,
2013-02-11 12:17:00,34.0,12.7,28.95,NNE,22,11.0,25.0,41,0.00,,,0.00,meteohub,2013-02-11 18:17:00,
2013-02-11 12:22:00,33.8,12.7,28.95,NNW,338,7.0,25.0,41,0.00,,,0.00,meteohub,2013-02-11 18:22:00,
2013-02-11 12:27:00,33.8,12.7,28.95,NNE,22,13.0,25.0,41,0.00,,,0.00,meteohub,2013-02-11 18:27:00,
2013-02-11 12:32:00,33.8,12.7,28.95,WSW,248,6.0,25.0,41,0.00,,,0.00,meteohub,2013-02-11 18:32:00,
2013-02-11 12:37:00,33.8,12.7,28.95,NNW,338,10.0,25.0,41,0.00,,,0.00,meteohub,2013-02-11 18:37:00,
2013-02-11 12:42:00,33.6,13.1,28.95,North,0,9.0,25.0,42,0.00,,,0.00,meteohub,2013-02-11 18:42:00,
2013-02-11 12:47:00,33.6,13.1,28.95,NNE,22,11.0,26.0,42,0.00,,,0.00,meteohub,2013-02-11 18:47:00,
2013-02-11 12:52:00,33.6,13.1,28.95,East,90,6.0,26.0,42,0.00,,,0.00,meteohub,2013-02-11 18:52:00,
2013-02-11 12:57:00,33.6,13.1,28.95,North,0,6.0,26.0,42,0.00,,,0.00,meteohub,2013-02-11 18:57:00,
2013-02-11 13:02:00,33.6,13.1,28.95,East,90,11.0,25.0,42,0.00,,,0.00,meteohub,2013-02-11 19:02:00,
2013-02-11 13:07:00,33.6,13.1,28.95,NNE,22,15.0,20.0,42,0.00,,,0.00,meteohub,2013-02-11 19:07:00,
2013-02-11 13:12:00,33.4,12.9,28.98,ENE,68,12.0,19.0,42,0.00,,,0.00,meteohub,2013-02-11 19:12:00,
2013-02-11 13:17:00,33.6,13.1,28.98,ENE,68,13.0,26.0,42,0.00,,,0.00,meteohub,2013-02-11 19:17:00,
2013-02-11 13:22:00,33.6,13.1,28.98,North,0,11.0,26.0,42,0.00,,,0.00,meteohub,2013-02-11 19:22:00,
2013-02-11 13:27:00,33.6,13.1,28.95,ENE,68,10.0,26.0,42,0.00,,,0.00,meteohub,2013-02-11 19:27:00,
2013-02-11 13:32:00,33.6,13.1,28.95,NNW,338,11.0,20.0,42,0.00,,,0.00,meteohub,2013-02-11 19:32:00,
2013-02-11 13:37:00,33.4,12.9,28.95,ENE,68,13.0,23.0,42,0.00,,,0.00,meteohub,2013-02-11 19:37:00,
2013-02-11 13:42:00,33.4,12.9,28.98,NE,45,8.0,23.0,42,0.00,,,0.00,meteohub,2013-02-11 19:42:00,
2013-02-11 13:47:00,33.4,12.9,28.98,East,90,11.0,26.0,42,0.00,,,0.00,meteohub,2013-02-11 19:47:00,
2013-02-11 13:52:00,33.4,12.9,28.98,NNE,22,12.0,26.0,42,0.00,,,0.00,meteohub,2013-02-11 19:52:00,
2013-02-11 13:57:00,33.4,12.9,28.98,NNE,22,9.0,24.0,42,0.00,,,0.00,meteohub,2013-02-11 19:57:00,
2013-02-11 14:02:00,33.3,12.7,28.98,NE,45,16.0,24.0,42,0.00,,,0.00,meteohub,2013-02-11 20:02:00,
2013-02-11 14:07:00,33.3,12.7,28.98,NNW,338,9.0,25.0,42,0.00,,,0.00,meteohub,2013-02-11 20:07:00,
2013-02-11 14:12:00,33.1,12.6,28.98,ESE,112,11.0,25.0,42,0.00,,,0.00,meteohub,2013-02-11 20:12:00,
2013-02-11 14:17:00,33.3,12.7,28.98,NNE,22,10.0,25.0,42,0.00,,,0.00,meteohub,2013-02-11 20:17:00,
2013-02-11 14:22:00,33.3,12.7,28.98,NNW,338,10.0,25.0,42,0.00,,,0.00,meteohub,2013-02-11 20:22:00,
2013-02-11 14:27:00,33.3,12.7,28.98,North,0,6.0,18.0,42,0.00,,,0.00,meteohub,2013-02-11 20:27:00,
2013-02-11 14:32:00,33.3,12.7,28.98,NNE,22,15.0,23.0,42,0.00,,,0.00,meteohub,2013-02-11 20:32:00,
2013-02-11 14:37:00,33.1,12.6,28.98,NNE,22,10.0,23.0,42,0.00,,,0.00,meteohub,2013-02-11 20:37:00,
2013-02-11 14:42:00,33.1,12.6,28.98,NNE,22,11.0,23.0,42,0.00,,,0.00,meteohub,2013-02-11 20:42:00,
2013-02-11 14:47:00,33.1,13.1,28.98,ENE,68,9.0,21.0,43,0.00,,,0.00,meteohub,2013-02-11 20:47:00,
2013-02-11 14:52:00,33.1,12.0,28.98,NNE,22,13.0,22.0,41,0.00,,,0.00,meteohub,2013-02-11 20:52:00,
2013-02-11 14:57:00,33.1,12.0,28.98,ENE,68,17.0,28.0,41,0.00,,,0.00,meteohub,2013-02-11 20:57:00,
2013-02-11 15:02:00,33.1,12.0,28.98,NNE,22,4.0,28.0,41,0.00,,,0.00,meteohub,2013-02-11 21:02:00,
2013-02-11 15:07:00,33.3,12.2,28.98,North,0,15.0,28.0,41,0.00,,,0.00,meteohub,2013-02-11 21:07:00,
2013-02-11 15:12:00,33.3,12.2,29.01,NNE,22,8.0,20.0,41,0.00,,,0.00,meteohub,2013-02-11 21:12:00,
2013-02-11 15:17:00,33.3,12.2,29.01,NNW,338,11.0,24.0,41,0.00,,,0.00,meteohub,2013-02-11 21:17:00,
2013-02-11 15:22:00,33.1,12.0,29.01,North,0,15.0,24.0,41,0.00,,,0.00,meteohub,2013-02-11 21:22:00,
2013-02-11 15:27:00,32.9,11.8,29.01,NNE,22,12.0,26.0,41,0.00,,,0.00,meteohub,2013-02-11 21:27:00,
2013-02-11 15:32:00,32.9,11.8,29.01,WNW,292,11.0,26.0,41,0.00,,,0.00,meteohub,2013-02-11 21:32:00,
2013-02-11 15:37:00,32.9,11.8,29.01,NNE,22,6.0,26.0,41,0.00,,,0.00,meteohub,2013-02-11 21:37:00,
2013-02-11 15:43:00,32.7,11.7,29.01,NNE,22,17.0,23.0,41,0.00,,,0.00,meteohub,2013-02-11 21:43:00,
2013-02-11 15:48:00,32.7,12.2,29.01,ENE,68,13.0,19.0,42,0.00,,,0.00,meteohub,2013-02-11 21:48:00,
2013-02-11 15:53:00,32.5,11.5,29.01,East,90,10.0,17.0,41,0.00,,,0.00,meteohub,2013-02-11 21:53:00,
2013-02-11 15:58:00,32.5,12.0,29.04,North,0,11.0,20.0,42,0.00,,,0.00,meteohub,2013-02-11 21:58:00,
2013-02-11 16:03:00,32.5,11.5,29.04,NNE,22,12.0,21.0,41,0.00,,,0.00,meteohub,2013-02-11 22:03:00,
2013-02-11 16:08:00,32.5,11.5,29.04,NNE,22,9.0,21.0,41,0.00,,,0.00,meteohub,2013-02-11 22:08:00,
2013-02-11 16:13:00,32.5,12.0,29.04,NNE,22,11.0,24.0,42,0.00,,,0.00,meteohub,2013-02-11 22:13:00,
2013-02-11 16:18:00,32.4,11.8,29.04,WNW,292,13.0,24.0,42,0.00,,,0.00,meteohub,2013-02-11 22:18:00,
2013-02-11 16:23:00,32.4,12.4,29.04,SE,135,10.0,22.0,43,0.00,,,0.00,meteohub,2013-02-11 22:23:00,
2013-02-11 16:28:00,32.4,12.4,29.07,North,0,7.0,18.0,43,0.00,,,0.00,meteohub,2013-02-11 22:28:00,
2013-02-11 16:33:00,32.2,12.2,29.07,WNW,292,9.0,17.0,43,0.00,,,0.00,meteohub,2013-02-11 22:33:00,
2013-02-11 16:38:00,32.2,12.2,29.07,NE,45,9.0,18.0,43,0.00,,,0.00,meteohub,2013-02-11 22:38:00,
2013-02-11 16:43:00,32.2,12.2,29.07,NE,45,13.0,22.0,43,0.00,,,0.00,meteohub,2013-02-11 22:43:00,
2013-02-11 16:48:00,32.0,11.5,29.07,SSE,158,15.0,22.0,42,0.00,,,0.00,meteohub,2013-02-11 22:48:00,
2013-02-11 16:53:00,32.0,11.5,29.07,ENE,68,9.0,23.0,42,0.00,,,0.00,meteohub,2013-02-11 22:53:00,
2013-02-11 16:58:00,31.8,11.3,29.07,NNE,22,9.0,23.0,42,0.00,,,0.00,meteohub,2013-02-11 22:58:00,
2013-02-11 17:03:00,31.6,11.1,29.07,East,90,19.0,22.0,42,0.00,,,0.00,meteohub,2013-02-11 23:03:00,
2013-02-11 17:08:00,31.6,11.1,29.07,NNE,22,8.0,20.0,42,0.00,,,0.00,meteohub,2013-02-11 23:08:00,
2013-02-11 17:13:00,31.5,11.7,29.10,WNW,292,6.0,20.0,43,0.00,,,0.00,meteohub,2013-02-11 23:13:00,
2013-02-11 17:18:00,31.5,11.7,29.10,NNE,22,10.0,19.0,43,0.00,,,0.00,meteohub,2013-02-11 23:18:00,
2013-02-11 17:23:00,31.5,11.7,29.10,ENE,68,11.0,21.0,43,0.00,,,0.00,meteohub,2013-02-11 23:23:00,
2013-02-11 17:28:00,31.3,11.5,29.10,NNE,22,10.0,21.0,43,0.00,,,0.00,meteohub,2013-02-11 23:28:00,
2013-02-11 17:33:00,31.3,10.9,29.10,ENE,68,27.0,27.0,42,0.00,,,0.00,meteohub,2013-02-11 23:33:00,
2013-02-11 17:38:00,31.3,10.9,29.10,ENE,68,8.0,17.0,42,0.00,,,0.00,meteohub,2013-02-11 23:38:00,
2013-02-11 17:43:00,31.1,10.8,29.10,ENE,68,18.0,27.0,42,0.00,,,0.00,meteohub,2013-02-11 23:43:00,
2013-02-11 17:48:00,31.1,11.3,29.10,NNE,22,8.0,27.0,43,0.00,,,0.00,meteohub,2013-02-11 23:48:00,
2013-02-11 17:53:00,31.1,11.3,29.10,ESE,112,10.0,19.0,43,0.00,,,0.00,meteohub,2013-02-11 23:53:00,
2013-02-11 17:58:00,31.1,11.3,29.10,East,90,6.0,19.0,43,0.00,,,0.00,meteohub,2013-02-11 23:58:00,
2013-02-11 18:03:00,31.1,11.3,29.10,NNE,22,8.0,18.0,43,0.00,,,0.00,meteohub,2013-02-12 00:03:00,
2013-02-11 18:08:00,30.9,11.7,29.13,North,0,7.0,18.0,44,0.00,,,0.00,meteohub,2013-02-12 00:08:00,
2013-02-11 18:13:00,30.9,11.7,29.13,NNE,22,6.0,16.0,44,0.00,,,0.00,meteohub,2013-02-12 00:13:00,
2013-02-11 18:18:00,30.9,11.1,29.13,ESE,112,11.0,21.0,43,0.00,,,0.00,meteohub,2013-02-12 00:18:00,
2013-02-11 18:23:00,30.9,11.1,29.13,ESE,112,6.0,21.0,43,0.00,,,0.00,meteohub,2013-02-12 00:23:00,
2013-02-11 18:28:00,30.9,11.1,29.13,East,90,12.0,21.0,43,0.00,,,0.00,meteohub,2013-02-12 00:28:00,
2013-02-11 18:33:00,30.9,11.1,29.13,East,90,6.0,16.0,43,0.00,,,0.00,meteohub,2013-02-12 00:33:00,
2013-02-11 18:38:00,30.9,11.1,29.13,East,90,17.0,17.0,43,0.00,,,0.00,meteohub,2013-02-12 00:38:00,
2013-02-11 18:43:00,30.9,11.1,29.13,NNE,22,10.0,18.0,43,0.00,,,0.00,meteohub,2013-02-12 00:43:00,
2013-02-11 18:48:00,30.9,11.1,29.13,WNW,292,12.0,18.0,43,0.00,,,0.00,meteohub,2013-02-12 00:48:00,
2013-02-11 18:54:00,30.9,11.1,29.13,NE,45,10.0,18.0,43,0.00,,,0.00,meteohub,2013-02-12 00:54:00,
2013-02-11 18:59:00,30.9,10.6,29.13,NNE,22,22.0,22.0,42,0.00,,,0.00,meteohub,2013-02-12 00:59:00,
2013-02-11 19:04:00,30.9,10.6,29.13,ENE,68,13.0,22.0,42,0.00,,,0.00,meteohub,2013-02-12 01:04:00,
2013-02-11 19:09:00,30.9,11.1,29.13,NE,45,10.0,22.0,43,0.00,,,0.00,meteohub,2013-02-12 01:09:00,
2013-02-11 19:14:00,30.9,11.1,29.13,East,90,14.0,22.0,43,0.00,,,0.00,meteohub,2013-02-12 01:14:00,
2013-02-11 19:19:00,30.9,11.1,29.13,ENE,68,11.0,17.0,43,0.00,,,0.00,meteohub,2013-02-12 01:19:00,
2013-02-11 19:24:00,30.9,11.1,29.13,ENE,68,16.0,20.0,43,0.00,,,0.00,meteohub,2013-02-12 01:24:00,
2013-02-11 19:29:00,30.7,11.5,29.13,ENE,68,10.0,20.0,44,0.00,,,0.00,meteohub,2013-02-12 01:29:00,
2013-02-11 19:34:00,30.7,10.9,29.13,NNE,22,10.0,20.0,43,0.00,,,0.00,meteohub,2013-02-12 01:34:00,
2013-02-11 19:39:00,30.7,10.4,29.13,NNE,22,20.0,20.0,42,0.00,,,0.00,meteohub,2013-02-12 01:39:00,
2013-02-11 19:44:00,30.7,10.4,29.13,North,0,10.0,18.0,42,0.00,,,0.00,meteohub,2013-02-12 01:44:00,
2013-02-11 19:49:00,30.7,10.4,29.13,ENE,68,11.0,20.0,42,0.00,,,0.00,meteohub,2013-02-12 01:49:00,
2013-02-11 19:54:00,30.7,10.4,29.13,NNE,22,10.0,21.0,42,0.00,,,0.00,meteohub,2013-02-12 01:54:00,
2013-02-11 19:59:00,30.6,10.8,29.13,ENE,68,13.0,21.0,43,0.00,,,0.00,meteohub,2013-02-12 01:59:00,
2013-02-11 20:04:00,30.6,10.8,29.13,ENE,68,11.0,22.0,43,0.00,,,0.00,meteohub,2013-02-12 02:04:00,
2013-02-11 20:09:00,30.6,11.3,29.16,ENE,68,9.0,22.0,44,0.00,,,0.00,meteohub,2013-02-12 02:09:00,
2013-02-11 20:14:00,30.4,11.1,29.16,East,90,15.0,22.0,44,0.00,,,0.00,meteohub,2013-02-12 02:14:00,
2013-02-11 20:19:00,30.4,11.7,29.16,NNE,22,8.0,17.0,45,0.00,,,0.00,meteohub,2013-02-12 02:19:00,
2013-02-11 20:24:00,30.4,11.7,29.16,ENE,68,8.0,20.0,45,0.00,,,0.00,meteohub,2013-02-12 02:24:00,
2013-02-11 20:29:00,30.4,11.7,29.16,NNE,22,10.0,20.0,45,0.00,,,0.00,meteohub,2013-02-12 02:29:00,
2013-02-11 20:34:00,30.4,11.7,29.16,ENE,68,11.0,20.0,45,0.00,,,0.00,meteohub,2013-02-12 02:34:00,
2013-02-11 20:39:00,30.2,12.0,29.16,East,90,11.0,13.0,46,0.00,,,0.00,meteohub,2013-02-12 02:39:00,
2013-02-11 20:44:00,30.2,12.0,29.16,ENE,68,8.0,15.0,46,0.00,,,0.00,meteohub,2013-02-12 02:44:00,
2013-02-11 20:49:00,30.2,12.0,29.16,ENE,68,6.0,15.0,46,0.00,,,0.00,meteohub,2013-02-12 02:49:00,
2013-02-11 20:54:00,30.2,12.0,29.16,East,90,8.0,15.0,46,0.00,,,0.00,meteohub,2013-02-12 02:54:00,
2013-02-11 20:59:00,30.2,12.0,29.16,ENE,68,4.0,18.0,46,0.00,,,0.00,meteohub,2013-02-12 02:59:00,
2013-02-11 21:04:00,30.2,12.0,29.16,ENE,68,17.0,18.0,46,0.00,,,0.00,meteohub,2013-02-12 03:04:00,
2013-02-11 21:09:00,30.2,11.5,29.16,East,90,10.0,18.0,45,0.00,,,0.00,meteohub,2013-02-12 03:09:00,
2013-02-11 21:14:00,30.2,11.5,29.16,ENE,68,4.0,17.0,45,0.00,,,0.00,meteohub,2013-02-12 03:14:00,
2013-02-11 21:19:00,30.2,10.9,29.16,NNE,22,10.0,17.0,44,0.00,,,0.00,meteohub,2013-02-12 03:19:00,
2013-02-11 21:24:00,30.2,11.5,29.16,ENE,68,6.0,15.0,45,0.00,,,0.00,meteohub,2013-02-12 03:24:00,
2013-02-11 21:29:00,30.2,10.9,29.16,ENE,68,10.0,15.0,44,0.00,,,0.00,meteohub,2013-02-12 03:29:00,
2013-02-11 21:34:00,30.2,10.9,29.16,NNE,22,11.0,17.0,44,0.00,,,0.00,meteohub,2013-02-12 03:34:00,
2013-02-11 21:39:00,30.2,10.9,29.16,East,90,6.0,17.0,44,0.00,,,0.00,meteohub,2013-02-12 03:39:00,
2013-02-11 21:44:00,30.0,10.8,29.16,ENE,68,8.0,17.0,44,0.00,,,0.00,meteohub,2013-02-12 03:44:00,
2013-02-11 21:49:00,30.2,10.9,29.16,ENE,68,11.0,16.0,44,0.00,,,0.00,meteohub,2013-02-12 03:49:00,
2013-02-11 21:54:00,30.2,10.9,29.19,ENE,68,13.0,14.0,44,0.00,,,0.00,meteohub,2013-02-12 03:54:00,
2013-02-11 21:59:00,30.0,10.8,29.19,ENE,68,6.0,16.0,44,0.00,,,0.00,meteohub,2013-02-12 03:59:00,
2013-02-11 22:04:00,30.0,10.8,29.19,East,90,6.0,17.0,44,0.00,,,0.00,meteohub,2013-02-12 04:04:00,
2013-02-11 22:09:00,30.0,10.8,29.16,ESE,112,13.0,17.0,44,0.00,,,0.00,meteohub,2013-02-12 04:09:00,
2013-02-11 22:14:00,30.0,10.8,29.16,East,90,9.0,17.0,44,0.00,,,0.00,meteohub,2013-02-12 04:14:00,
2013-02-11 22:19:00,30.0,11.3,29.16,ENE,68,7.0,13.0,45,0.00,,,0.00,meteohub,2013-02-12 04:19:00,
2013-02-11 22:24:00,30.0,11.3,29.19,ENE,68,9.0,13.0,45,0.00,,,0.00,meteohub,2013-02-12 04:24:00,
2013-02-11 22:29:00,29.8,11.1,29.19,East,90,8.0,13.0,45,0.00,,,0.00,meteohub,2013-02-12 04:29:00,
2013-02-11 22:34:00,29.8,11.1,29.19,ENE,68,6.0,13.0,45,0.00,,,0.00,meteohub,2013-02-12 04:34:00,
2013-02-11 22:39:00,29.8,11.1,29.19,ENE,68,6.0,13.0,45,0.00,,,0.00,meteohub,2013-02-12 04:39:00,
2013-02-11 22:44:00,29.7,10.4,29.19,ENE,68,11.0,15.0,44,0.00,,,0.00,meteohub,2013-02-12 04:44:00,
2013-02-11 22:49:00,29.7,10.4,29.19,NNE,22,6.0,16.0,44,0.00,,,0.00,meteohub,2013-02-12 04:49:00,
2013-02-11 22:54:00,29.7,10.4,29.19,ENE,68,8.0,17.0,44,0.00,,,0.00,meteohub,2013-02-12 04:54:00,
2013-02-11 22:59:00,29.7,10.4,29.19,East,90,9.0,17.0,44,0.00,,,0.00,meteohub,2013-02-12 04:59:00,
2013-02-11 23:00:00,29.7,10.4,29.19,East,90,9.0,17.0,44,0.00,,,0.00,meteohub,2013-02-12 05:00:00,
2013-02-11 23:05:00,29.5,10.8,29.19,NNE,22,5.0,17.0,45,0.00,,,0.00,meteohub,2013-02-12 05:05:00,
2013-02-11 23:10:00,29.5,10.8,29.19,East,90,9.0,17.0,45,0.00,,,0.00,meteohub,2013-02-12 05:10:00,
2013-02-11 23:15:00,29.5,10.8,29.19,NNE,22,5.0,12.0,45,0.00,,,0.00,meteohub,2013-02-12 05:15:00,
2013-02-11 23:20:00,29.5,11.3,29.19,North,0,4.0,12.0,46,0.00,,,0.00,meteohub,2013-02-12 05:20:00,
2013-02-11 23:25:00,29.5,11.3,29.19,NNE,22,4.0,11.0,46,0.00,,,0.00,meteohub,2013-02-12 05:25:00,
2013-02-11 23:30:00,29.5,11.8,29.19,NNE,22,6.0,10.0,47,0.00,,,0.00,meteohub,2013-02-12 05:30:00,
2013-02-11 23:35:00,29.5,11.8,29.19,NW,315,8.0,11.0,47,0.00,,,0.00,meteohub,2013-02-12 05:35:00,
2013-02-11 23:40:00,29.5,11.8,29.22,North,0,6.0,11.0,47,0.00,,,0.00,meteohub,2013-02-12 05:40:00,
2013-02-11 23:45:00,29.3,11.7,29.22,NNE,22,10.0,12.0,47,0.00,,,0.00,meteohub,2013-02-12 05:45:00,
2013-02-11 23:50:00,29.3,11.7,29.22,NNE,22,10.0,12.0,47,0.00,,,0.00,meteohub,2013-02-12 05:50:00,
2013-02-11 23:55:00,29.3,11.7,29.22,ENE,68,4.0,12.0,47,0.00,,,0.00,meteohub,2013-02-12 05:55:00,